< < Back
Terminal Aerodrome Forecast


Current Version              Previous Versions:   1  2  3  4  5  6  7  8  9  

Terminal Aerodrome Forecast

065
FTUS42 KTAE 271120
TAFDHN
TAF
KDHN 271120Z 2712/2812 VRB03KT P6SM SKC
     FM271400 05010KT P6SM SKC
     FM280000 VRB03KT P6SM SKC=

Latest METAR

054
SAUS70 KWBC 281300 RRE
MTRDHN
METAR KDHN 281253Z 35004KT 8SM BKN070 28/23 A3003 RMK AO2 SLP164
T02780228


USA.gov is the U.S. government's official web portal to all federal, state and local government web resources and services.